createdAt,value
2018-09-10T00:01:57.220Z,15.80
2018-09-10T00:05:01.597Z,15.81
2018-09-10T00:08:05.998Z,15.82
2018-09-10T00:11:10.347Z,15.85
2018-09-10T00:14:14.681Z,15.85
2018-09-10T00:17:18.969Z,15.90
2018-09-10T00:20:23.668Z,15.94
2018-09-10T00:23:29.675Z,16.03
2018-09-10T00:26:34.031Z,16.05
2018-09-10T00:29:38.306Z,16.06
2018-09-10T00:32:42.632Z,16.04
2018-09-10T00:35:46.945Z,16.07
2018-09-10T00:38:51.281Z,16.08
2018-09-10T00:41:55.568Z,16.11
2018-09-10T00:44:59.928Z,16.14
2018-09-10T00:48:04.180Z,16.18
2018-09-10T00:51:08.579Z,16.22
2018-09-10T00:54:12.852Z,16.25
2018-09-10T00:57:17.209Z,16.24
2018-09-10T01:00:21.438Z,16.25
2018-09-10T01:03:25.988Z,16.25
2018-09-10T01:06:30.331Z,16.25
2018-09-10T01:09:34.651Z,16.25
2018-09-10T01:12:38.967Z,16.26
2018-09-10T01:15:43.385Z,16.26
2018-09-10T01:18:47.707Z,16.28
2018-09-10T01:21:52.084Z,16.32
2018-09-10T01:24:56.473Z,16.37
2018-09-10T01:28:00.796Z,16.38
2018-09-10T01:31:05.090Z,16.37
2018-09-10T01:34:14.581Z,16.39
2018-09-10T01:37:18.901Z,16.41
2018-09-10T01:40:23.203Z,16.43
2018-09-10T01:43:27.514Z,16.48
2018-09-10T01:46:31.965Z,16.50
2018-09-10T01:49:36.421Z,16.56
2018-09-10T01:52:40.686Z,16.58
2018-09-10T01:55:44.953Z,16.57
2018-09-10T01:58:49.752Z,16.61
2018-09-10T02:01:54.020Z,16.59
2018-09-10T02:04:58.375Z,16.56
2018-09-10T02:08:02.880Z,16.58
2018-09-10T02:11:07.229Z,16.56
2018-09-10T02:14:11.536Z,16.58
2018-09-10T02:17:15.892Z,16.60
2018-09-10T02:20:20.140Z,16.60
2018-09-10T02:23:24.605Z,16.59
2018-09-10T02:26:29.014Z,16.60
2018-09-10T02:29:33.326Z,16.60
2018-09-10T02:32:37.581Z,16.58
2018-09-10T02:35:41.977Z,16.61
2018-09-10T02:38:46.295Z,16.60
2018-09-10T02:41:50.615Z,16.57
2018-09-10T02:44:54.888Z,16.59
2018-09-10T02:47:59.259Z,16.61
2018-09-10T02:51:03.578Z,16.59
2018-09-10T02:54:08.159Z,16.64
2018-09-10T02:57:12.487Z,16.61
2018-09-10T03:00:16.789Z,16.62
2018-09-10T03:03:21.154Z,16.59
2018-09-10T03:06:25.481Z,16.55
2018-09-10T03:09:29.776Z,16.54
2018-09-10T03:12:34.117Z,16.54
2018-09-10T03:15:38.405Z,16.58
2018-09-10T03:18:43.008Z,16.59
2018-09-10T03:21:47.348Z,16.58
2018-09-10T03:24:51.792Z,16.57
2018-09-10T03:27:56.085Z,16.62
2018-09-10T03:31:00.417Z,16.65
2018-09-10T03:34:04.791Z,16.62
2018-09-10T03:37:09.068Z,16.62
2018-09-10T03:40:13.391Z,16.63
2018-09-10T03:43:17.689Z,16.66
2018-09-10T03:46:22.013Z,16.67
2018-09-10T03:49:26.354Z,16.66
2018-09-10T03:52:30.617Z,16.62
2018-09-10T03:55:35.004Z,16.60
2018-09-10T03:58:39.283Z,16.55
2018-09-10T04:01:43.661Z,16.53
2018-09-10T04:04:47.913Z,16.51
2018-09-10T04:07:52.307Z,16.46
2018-09-10T04:10:56.595Z,16.41
2018-09-10T04:14:00.920Z,16.35
2018-09-10T04:17:05.596Z,16.34
2018-09-10T04:20:11.004Z,16.29
2018-09-10T04:23:15.294Z,16.29
2018-09-10T04:26:19.589Z,16.27
2018-09-10T04:29:23.920Z,16.24
2018-09-10T04:32:28.253Z,16.19
2018-09-10T04:35:32.528Z,16.13
2018-09-10T04:38:36.784Z,16.08
2018-09-10T04:41:42.269Z,16.07
2018-09-10T04:44:46.566Z,16.03
2018-09-10T04:47:50.969Z,16.00
2018-09-10T04:50:55.260Z,15.97
2018-09-10T04:53:59.605Z,15.96
2018-09-10T04:57:03.949Z,15.96
2018-09-10T05:00:08.274Z,15.93
2018-09-10T05:03:12.982Z,15.90
2018-09-10T05:06:17.325Z,15.93
2018-09-10T05:09:21.884Z,15.92
2018-09-10T05:12:26.143Z,15.91
2018-09-10T05:15:30.432Z,15.91
2018-09-10T05:18:34.752Z,15.94
2018-09-10T05:21:39.139Z,15.95
2018-09-10T05:24:43.401Z,15.97
2018-09-10T05:27:47.671Z,15.97
2018-09-10T05:30:51.961Z,15.98
2018-09-10T05:33:56.291Z,15.96
2018-09-10T05:37:00.600Z,15.96
2018-09-10T05:40:07.359Z,16.00
2018-09-10T05:43:11.708Z,16.01
2018-09-10T05:46:15.998Z,16.04
2018-09-10T05:49:20.343Z,16.05
2018-09-10T05:52:24.686Z,16.07
2018-09-10T05:55:29.060Z,16.12
2018-09-10T05:58:33.422Z,16.14
2018-09-10T06:01:37.705Z,16.18
2018-09-10T06:04:42.101Z,16.24
2018-09-10T06:07:46.469Z,16.28
2018-09-10T06:10:50.755Z,16.33
2018-09-10T06:13:55.485Z,16.38
2018-09-10T06:16:59.834Z,16.41
2018-09-10T06:20:04.115Z,16.45
2018-09-10T06:23:08.600Z,16.52
2018-09-10T06:26:12.967Z,16.64
2018-09-10T06:29:17.426Z,16.72
2018-09-10T06:32:21.729Z,16.78
2018-09-10T06:35:26.054Z,16.80
2018-09-10T06:38:30.342Z,16.83
2018-09-10T06:41:34.828Z,16.89
2018-09-10T06:44:39.057Z,16.96
2018-09-10T06:47:43.384Z,17.03
2018-09-10T06:50:47.746Z,17.07
2018-09-10T06:53:52.081Z,17.07
2018-09-10T06:56:56.364Z,17.09
2018-09-10T07:00:00.645Z,17.13
2018-09-10T07:03:05.109Z,17.19
2018-09-10T07:06:09.418Z,17.21
2018-09-10T07:09:13.777Z,17.25
2018-09-10T07:12:18.096Z,17.31
2018-09-10T07:15:22.386Z,17.39
2018-09-10T07:18:26.755Z,17.47
2018-09-10T07:21:31.211Z,17.53
2018-09-10T07:24:35.676Z,17.62
2018-09-10T07:27:40.065Z,17.71
2018-09-10T07:30:44.443Z,17.80
2018-09-10T07:33:48.729Z,17.91
2018-09-10T07:36:52.974Z,18.03
2018-09-10T07:39:57.348Z,18.10
2018-09-10T07:43:01.730Z,18.14
2018-09-10T07:46:06.130Z,18.19
2018-09-10T07:49:10.428Z,18.27
2018-09-10T07:52:14.796Z,18.39
2018-09-10T07:55:19.206Z,18.41
2018-09-10T07:58:23.445Z,18.43
2018-09-10T08:01:27.760Z,18.42
2018-09-10T08:04:32.116Z,18.44
2018-09-10T08:07:36.421Z,18.56
2018-09-10T08:10:40.857Z,18.77
2018-09-10T08:13:45.479Z,18.97
2018-09-10T08:16:49.745Z,19.15
2018-09-10T08:19:54.043Z,19.39
2018-09-10T08:22:58.302Z,19.72
2018-09-10T08:26:02.593Z,19.84
2018-09-10T08:29:07.082Z,19.97
2018-09-10T08:32:11.674Z,20.02
2018-09-10T08:35:16.004Z,19.70
2018-09-10T08:38:20.393Z,19.49
2018-09-10T08:41:24.809Z,19.24
2018-09-10T08:44:29.484Z,19.11
2018-09-10T08:47:33.813Z,18.89
2018-09-10T08:50:38.087Z,18.67
2018-09-10T08:53:42.350Z,18.53
2018-09-10T08:56:46.613Z,18.42
2018-09-10T08:59:50.872Z,18.44
2018-09-10T09:02:55.236Z,18.63
2018-09-10T09:05:59.562Z,18.80
2018-09-10T09:09:04.583Z,19.02
2018-09-10T09:12:08.994Z,19.18
2018-09-10T09:15:13.290Z,19.36
2018-09-10T09:18:17.610Z,19.61
2018-09-10T09:21:22.037Z,19.90
2018-09-10T09:24:26.307Z,19.93
2018-09-10T09:27:30.603Z,19.90
2018-09-10T09:30:34.930Z,19.72
2018-09-10T09:33:39.259Z,19.67
2018-09-10T09:36:48.900Z,19.60
2018-09-10T09:39:58.558Z,19.57
2018-09-10T09:43:08.160Z,19.43
2018-09-10T09:46:14.401Z,19.47
2018-09-10T09:49:18.795Z,19.62
2018-09-10T09:52:23.149Z,19.81
2018-09-10T09:55:27.464Z,19.85
2018-09-10T09:58:31.814Z,19.90
2018-09-10T10:01:45.165Z,20.12
2018-09-10T10:04:49.433Z,20.31
2018-09-10T10:07:53.795Z,20.55
2018-09-10T10:10:58.245Z,20.47
2018-09-10T10:14:02.630Z,20.56
2018-09-10T10:17:06.944Z,20.69
2018-09-10T10:20:11.484Z,20.56
2018-09-10T10:23:15.782Z,20.46
2018-09-10T10:26:20.120Z,20.28
2018-09-10T10:29:24.402Z,20.14
2018-09-10T10:32:28.754Z,20.24
2018-09-10T10:35:33.011Z,20.32
2018-09-10T10:38:37.342Z,20.20
2018-09-10T10:41:41.672Z,20.47
2018-09-10T10:44:46.033Z,20.51
2018-09-10T10:47:50.332Z,20.29
2018-09-10T10:50:54.890Z,20.13
2018-09-10T10:53:59.154Z,20.06
2018-09-10T10:57:03.484Z,20.02
2018-09-10T11:00:08.092Z,19.96
2018-09-10T11:03:12.444Z,19.88
2018-09-10T11:06:16.750Z,19.93
2018-09-10T11:09:21.056Z,20.06
2018-09-10T11:12:25.373Z,20.20
2018-09-10T11:15:29.729Z,20.13
2018-09-10T11:18:34.150Z,20.09
2018-09-10T11:21:38.441Z,19.96
2018-09-10T11:24:42.934Z,19.89
2018-09-10T11:27:47.562Z,19.76
2018-09-10T11:30:51.909Z,19.62
2018-09-10T11:33:56.308Z,19.35
2018-09-10T11:37:00.668Z,19.39
2018-09-10T11:40:05.031Z,19.32
2018-09-10T11:43:09.507Z,19.34
2018-09-10T11:46:13.820Z,19.26
2018-09-10T11:49:18.155Z,19.40
2018-09-10T11:52:22.634Z,19.45
2018-09-10T11:55:26.917Z,19.61
2018-09-10T11:58:31.347Z,19.44
2018-09-10T12:01:35.668Z,19.46
2018-09-10T12:04:39.996Z,19.54
2018-09-10T12:07:44.364Z,19.53
2018-09-10T12:10:48.780Z,19.63
2018-09-10T12:13:53.107Z,19.72
2018-09-10T12:16:57.799Z,19.68
2018-09-10T12:20:02.197Z,19.71
2018-09-10T12:23:06.911Z,19.72
2018-09-10T12:26:11.334Z,19.78
2018-09-10T12:29:15.749Z,19.91
2018-09-10T12:32:20.377Z,19.83
2018-09-10T12:35:24.696Z,19.73
2018-09-10T12:38:29.228Z,19.74
2018-09-10T12:41:33.642Z,19.66
2018-09-10T12:44:37.951Z,19.52
2018-09-10T12:47:42.282Z,19.61
2018-09-10T12:50:46.524Z,19.66
2018-09-10T12:53:50.906Z,19.69
2018-09-10T12:56:55.313Z,19.72
2018-09-10T12:59:59.617Z,19.74
2018-09-10T13:03:03.959Z,19.80
2018-09-10T13:06:08.324Z,19.75
2018-09-10T13:09:12.656Z,19.86
2018-09-10T13:12:17.240Z,19.87
2018-09-10T13:15:21.512Z,19.80
2018-09-10T13:18:26.197Z,19.63
2018-09-10T13:21:30.499Z,19.44
2018-09-10T13:24:35.064Z,19.44
2018-09-10T13:27:39.434Z,19.27
2018-09-10T13:30:43.774Z,19.16
2018-09-10T13:33:48.148Z,19.06
2018-09-10T13:36:52.509Z,19.02
2018-09-10T13:39:56.810Z,18.85
2018-09-10T13:43:01.171Z,18.85
2018-09-10T13:46:05.576Z,18.81
2018-09-10T13:49:09.840Z,18.79
2018-09-10T13:52:14.488Z,18.66
2018-09-10T13:55:18.843Z,18.65
2018-09-10T13:58:23.334Z,18.61
2018-09-10T14:01:27.653Z,18.60
2018-09-10T14:04:32.056Z,18.54
2018-09-10T14:07:36.361Z,18.51
2018-09-10T14:10:40.733Z,18.50
2018-09-10T14:13:45.148Z,18.46
2018-09-10T14:16:49.487Z,18.46
2018-09-10T14:19:54.133Z,18.46
2018-09-10T14:22:58.493Z,18.45
2018-09-10T14:26:03.324Z,18.40
2018-09-10T14:29:07.658Z,18.28
2018-09-10T14:32:12.273Z,18.23
2018-09-10T14:35:16.538Z,18.17
2018-09-10T14:38:21.008Z,18.20
2018-09-10T14:41:25.364Z,18.22
2018-09-10T14:44:29.694Z,18.15
2018-09-10T14:47:34.311Z,18.17
2018-09-10T14:50:38.745Z,18.16
2018-09-10T14:53:43.395Z,18.10
2018-09-10T14:56:47.819Z,17.97
2018-09-10T14:59:52.265Z,17.95
2018-09-10T15:02:57.382Z,17.94
2018-09-10T15:06:01.737Z,17.97
2018-09-10T15:09:08.330Z,17.97
2018-09-10T15:12:12.731Z,17.92
2018-09-10T15:15:17.157Z,17.97
2018-09-10T15:18:21.565Z,17.99
2018-09-10T15:21:25.820Z,17.97
2018-09-10T15:24:30.118Z,17.96
2018-09-10T15:27:34.437Z,17.96
2018-09-10T15:30:38.761Z,18.03
2018-09-10T15:33:43.047Z,18.05
2018-09-10T15:36:47.358Z,18.06
2018-09-10T15:39:51.901Z,18.04
2018-09-10T15:42:56.217Z,18.08
2018-09-10T15:46:00.617Z,18.06
2018-09-10T15:49:05.177Z,17.96
2018-09-10T15:52:09.692Z,17.87
2018-09-10T15:55:14.133Z,17.72
2018-09-10T15:58:18.435Z,17.70
2018-09-10T16:01:22.784Z,17.71
2018-09-10T16:04:27.191Z,17.64
2018-09-10T16:07:31.526Z,17.51
2018-09-10T16:10:35.990Z,17.39
2018-09-10T16:13:40.334Z,17.32
2018-09-10T16:16:44.729Z,17.28
2018-09-10T16:19:49.114Z,17.33
2018-09-10T16:22:54.463Z,17.31
2018-09-10T16:25:58.747Z,17.33
2018-09-10T16:29:03.931Z,17.32
2018-09-10T16:32:08.230Z,17.33
2018-09-10T16:35:12.552Z,17.34
2018-09-10T16:38:16.883Z,17.30
2018-09-10T16:41:21.341Z,17.26
2018-09-10T16:44:25.742Z,17.27
2018-09-10T16:47:30.142Z,17.27
2018-09-10T16:50:34.468Z,17.26
2018-09-10T16:53:38.816Z,17.27
2018-09-10T16:56:43.167Z,17.24
2018-09-10T16:59:47.574Z,17.34
2018-09-10T17:02:52.569Z,17.52
2018-09-10T17:05:56.887Z,17.54
2018-09-10T17:09:01.305Z,17.52
2018-09-10T17:12:05.637Z,17.48
2018-09-10T17:15:10.051Z,17.37
2018-09-10T17:18:14.474Z,17.30
2018-09-10T17:21:18.771Z,17.20
2018-09-10T17:24:23.062Z,17.03
2018-09-10T17:27:27.409Z,16.91
2018-09-10T17:30:31.897Z,16.81
2018-09-10T17:33:36.258Z,16.73
2018-09-10T17:36:40.710Z,16.68
2018-09-10T17:39:45.075Z,16.66
2018-09-10T17:42:49.433Z,16.65
2018-09-10T17:45:53.740Z,16.59
2018-09-10T17:48:58.165Z,16.56
2018-09-10T17:52:02.581Z,16.53
2018-09-10T17:55:07.036Z,16.49
2018-09-10T17:58:11.359Z,16.46
2018-09-10T18:01:16.320Z,16.40
2018-09-10T18:04:20.753Z,16.35
2018-09-10T18:07:25.105Z,16.31
2018-09-10T18:10:29.531Z,16.26
2018-09-10T18:13:34.022Z,16.19
2018-09-10T18:16:38.358Z,16.12
2018-09-10T18:19:42.820Z,16.04
2018-09-10T18:22:47.177Z,15.96
2018-09-10T18:25:51.550Z,15.92
2018-09-10T18:28:56.526Z,15.84
2018-09-10T18:32:00.956Z,15.79
2018-09-10T18:35:05.618Z,15.74
2018-09-10T18:38:10.035Z,15.69
2018-09-10T18:41:14.533Z,15.63
2018-09-10T18:44:19.007Z,15.62
2018-09-10T18:47:23.501Z,15.56
2018-09-10T18:50:28.095Z,15.51
2018-09-10T18:53:32.432Z,15.47
2018-09-10T18:56:36.884Z,15.40
2018-09-10T18:59:42.302Z,15.37
2018-09-10T19:02:47.107Z,15.37
2018-09-10T19:05:51.464Z,15.38
2018-09-10T19:08:55.972Z,15.41
2018-09-10T19:12:00.463Z,15.40
2018-09-10T19:15:05.309Z,15.40
2018-09-10T19:18:09.881Z,15.41
2018-09-10T19:21:14.641Z,15.44
2018-09-10T19:24:19.198Z,15.49
2018-09-10T19:27:23.703Z,15.49
2018-09-10T19:30:28.540Z,15.50
2018-09-10T19:33:33.212Z,15.48
2018-09-10T19:36:37.812Z,15.52
2018-09-10T19:39:42.472Z,15.57
2018-09-10T19:42:47.701Z,15.56
2018-09-10T19:45:53.023Z,15.48
2018-09-10T19:48:57.529Z,15.44
2018-09-10T19:52:01.942Z,15.44
2018-09-10T19:55:07.463Z,15.39
2018-09-10T19:58:12.207Z,15.27
2018-09-10T20:01:17.881Z,15.16
2018-09-10T20:04:22.361Z,15.07
2018-09-10T20:07:26.760Z,14.95
2018-09-10T20:10:31.208Z,14.88
2018-09-10T20:13:35.627Z,14.81
2018-09-10T20:16:40.028Z,14.77
2018-09-10T20:19:44.419Z,14.72
2018-09-10T20:22:48.763Z,14.71
2018-09-10T20:25:53.100Z,14.69
2018-09-10T20:28:58.931Z,14.66
2018-09-10T20:32:03.397Z,14.62
2018-09-10T20:35:08.290Z,14.60
2018-09-10T20:38:12.588Z,14.58
2018-09-10T20:41:17.845Z,14.53
2018-09-10T20:44:22.116Z,14.50
2018-09-10T20:47:26.418Z,14.49
2018-09-10T20:50:30.739Z,14.49
2018-09-10T20:53:35.026Z,14.47
2018-09-10T20:56:39.364Z,14.44
2018-09-10T20:59:43.783Z,14.39
2018-09-10T21:02:49.551Z,14.36
2018-09-10T21:05:53.946Z,14.32
2018-09-10T21:08:58.282Z,14.30
2018-09-10T21:12:02.606Z,14.32
2018-09-10T21:15:07.009Z,14.34
2018-09-10T21:18:11.566Z,14.38
2018-09-10T21:21:15.940Z,14.38
2018-09-10T21:24:20.245Z,14.39
2018-09-10T21:27:24.566Z,14.33
2018-09-10T21:30:28.909Z,14.29
2018-09-10T21:33:33.356Z,14.27
2018-09-10T21:36:37.645Z,14.25
2018-09-10T21:39:41.936Z,14.22
2018-09-10T21:42:46.284Z,14.21
2018-09-10T21:45:50.678Z,14.18
2018-09-10T21:48:55.024Z,14.18
2018-09-10T21:51:59.477Z,14.15
2018-09-10T21:55:03.863Z,14.13
2018-09-10T21:58:08.193Z,14.10
2018-09-10T22:01:12.477Z,14.10
2018-09-10T22:04:16.812Z,14.05
2018-09-10T22:07:21.147Z,13.98
2018-09-10T22:10:26.172Z,13.94
2018-09-10T22:13:30.521Z,13.88
2018-09-10T22:16:34.836Z,13.82
2018-09-10T22:19:39.225Z,13.80
2018-09-10T22:22:43.597Z,13.83
2018-09-10T22:25:47.982Z,13.85
2018-09-10T22:28:52.406Z,13.89
2018-09-10T22:31:56.682Z,13.95
2018-09-10T22:35:00.939Z,13.96
2018-09-10T22:38:05.514Z,13.95
2018-09-10T22:41:09.767Z,13.95
2018-09-10T22:44:14.238Z,13.94
2018-09-10T22:47:18.538Z,13.92
2018-09-10T22:50:22.966Z,13.89
2018-09-10T22:53:28.089Z,13.89
2018-09-10T22:56:32.403Z,13.90
2018-09-10T22:59:36.697Z,13.94
2018-09-10T23:02:41.031Z,13.96
2018-09-10T23:05:45.323Z,13.94
2018-09-10T23:08:50.039Z,13.92
2018-09-10T23:11:54.404Z,13.90
2018-09-10T23:14:58.713Z,13.87
2018-09-10T23:18:03.021Z,13.84
2018-09-10T23:21:07.470Z,13.85
2018-09-10T23:24:11.773Z,13.85
2018-09-10T23:27:16.065Z,13.84
2018-09-10T23:30:20.440Z,13.79
2018-09-10T23:33:24.737Z,13.79
2018-09-10T23:36:29.888Z,13.76
2018-09-10T23:39:34.139Z,13.77
2018-09-10T23:42:38.430Z,13.79
2018-09-10T23:45:42.820Z,13.82
2018-09-10T23:48:48.229Z,13.81
2018-09-10T23:51:52.609Z,13.82
2018-09-10T23:54:56.956Z,13.81
2018-09-10T23:58:01.215Z,13.85
